createdAt,value
2019-02-21T00:00:10.223Z,9.18
2019-02-21T00:01:22.822Z,8.75
2019-02-21T00:02:27.042Z,8.70
2019-02-21T00:03:31.172Z,9.20
2019-02-21T00:04:35.357Z,8.30
2019-02-21T00:05:39.508Z,9.48
2019-02-21T00:06:43.946Z,8.80
2019-02-21T00:07:48.130Z,9.38
2019-02-21T00:08:52.226Z,8.70
2019-02-21T00:09:56.408Z,8.68
2019-02-21T00:11:00.512Z,8.88
2019-02-21T00:12:04.676Z,8.18
2019-02-21T00:13:08.857Z,8.48
2019-02-21T00:14:13.000Z,8.93
2019-02-21T00:15:17.160Z,8.43
2019-02-21T00:16:21.275Z,8.90
2019-02-21T00:17:25.451Z,8.43
2019-02-21T00:18:29.570Z,9.80
2019-02-21T00:19:33.731Z,8.80
2019-02-21T00:20:37.844Z,8.93
2019-02-21T00:21:41.972Z,8.88
2019-02-21T00:22:46.285Z,8.63
2019-02-21T00:23:50.401Z,9.43
2019-02-21T00:24:54.535Z,9.00
2019-02-21T00:25:58.721Z,8.78
2019-02-21T00:27:03.183Z,8.95
2019-02-21T00:28:07.346Z,8.40
2019-02-21T00:29:11.439Z,8.38
2019-02-21T00:30:15.556Z,7.70
2019-02-21T00:31:19.723Z,8.23
2019-02-21T00:32:23.895Z,8.30
2019-02-21T00:33:28.059Z,8.08
2019-02-21T00:34:32.162Z,8.35
2019-02-21T00:35:36.360Z,8.70
2019-02-21T00:36:40.739Z,8.10
2019-02-21T00:37:44.975Z,9.50
2019-02-21T00:38:49.070Z,8.40
2019-02-21T00:39:53.205Z,8.88
2019-02-21T00:40:57.379Z,8.65
2019-02-21T00:42:01.492Z,8.68
2019-02-21T00:43:05.664Z,9.10
2019-02-21T00:44:09.801Z,8.45
2019-02-21T00:45:13.923Z,8.50
2019-02-21T00:46:18.063Z,8.90
2019-02-21T00:47:22.187Z,8.23
2019-02-21T00:48:26.359Z,8.55
2019-02-21T00:49:30.568Z,8.93
2019-02-21T00:50:34.750Z,8.73
2019-02-21T00:51:39.139Z,8.68
2019-02-21T00:52:43.321Z,9.10
2019-02-21T00:53:47.612Z,8.48
2019-02-21T00:54:51.975Z,9.13
2019-02-21T00:55:56.202Z,8.90
2019-02-21T00:57:00.343Z,9.88
2019-02-21T00:58:04.562Z,9.78
2019-02-21T00:59:08.655Z,9.00
2019-02-21T01:00:13.418Z,9.63
2019-02-21T01:01:17.588Z,9.30
2019-02-21T01:02:21.700Z,9.20
2019-02-21T01:03:25.808Z,9.13
2019-02-21T01:04:29.922Z,8.70
2019-02-21T01:05:34.045Z,9.53
2019-02-21T01:06:38.160Z,9.50
2019-02-21T01:07:42.259Z,8.80
2019-02-21T01:08:48.064Z,8.98
2019-02-21T01:09:52.196Z,9.03
2019-02-21T01:10:56.331Z,8.95
2019-02-21T01:12:00.466Z,8.83
2019-02-21T01:13:04.573Z,9.10
2019-02-21T01:14:08.662Z,8.80
2019-02-21T01:15:12.767Z,9.33
2019-02-21T01:16:16.867Z,9.45
2019-02-21T01:17:21.207Z,8.98
2019-02-21T01:18:25.296Z,9.30
2019-02-21T01:19:29.404Z,9.48
2019-02-21T01:20:33.520Z,9.28
2019-02-21T01:21:37.682Z,10.13
2019-02-21T01:22:41.776Z,9.18
2019-02-21T01:23:46.004Z,10.53
2019-02-21T01:24:50.077Z,8.93
2019-02-21T01:25:54.282Z,9.35
2019-02-21T01:26:58.408Z,9.25
2019-02-21T01:28:02.560Z,9.68
2019-02-21T01:29:06.671Z,9.10
2019-02-21T01:30:10.788Z,9.40
2019-02-21T01:31:14.912Z,9.50
2019-02-21T01:32:19.018Z,9.38
2019-02-21T01:33:23.205Z,8.98
2019-02-21T01:34:27.330Z,8.68
2019-02-21T01:35:31.525Z,8.20
2019-02-21T01:36:35.699Z,8.60
2019-02-21T01:37:39.788Z,9.25
2019-02-21T01:38:44.009Z,9.15
2019-02-21T01:39:48.175Z,9.18
2019-02-21T01:40:52.347Z,9.20
2019-02-21T01:41:56.450Z,8.80
2019-02-21T01:43:00.547Z,8.65
2019-02-21T01:44:04.822Z,8.55
2019-02-21T01:45:09.002Z,8.78
2019-02-21T01:46:13.184Z,9.90
2019-02-21T01:47:17.272Z,8.63
2019-02-21T01:48:21.365Z,8.73
2019-02-21T01:49:25.511Z,9.13
2019-02-21T01:50:31.483Z,9.35
2019-02-21T01:51:35.415Z,8.63
2019-02-21T01:52:39.517Z,8.70
2019-02-21T01:53:43.624Z,8.65
2019-02-21T01:54:47.743Z,9.08
2019-02-21T01:55:51.835Z,9.20
2019-02-21T01:56:55.931Z,8.15
2019-02-21T01:58:00.026Z,9.45
2019-02-21T01:59:04.158Z,9.33
2019-02-21T02:00:08.987Z,9.50
2019-02-21T02:01:13.082Z,9.73
2019-02-21T02:02:17.182Z,9.80
2019-02-21T02:03:21.276Z,10.30
2019-02-21T02:04:25.442Z,9.13
2019-02-21T02:05:29.559Z,10.63
2019-02-21T02:06:33.689Z,9.80
2019-02-21T02:07:37.790Z,9.93
2019-02-21T02:08:41.955Z,9.58
2019-02-21T02:09:46.038Z,10.03
2019-02-21T02:10:50.150Z,10.28
2019-02-21T02:11:54.243Z,10.25
2019-02-21T02:12:58.365Z,10.82
2019-02-21T02:14:02.457Z,10.08
2019-02-21T02:15:06.765Z,11.88
2019-02-21T02:16:10.855Z,11.45
2019-02-21T02:17:15.348Z,10.90
2019-02-21T02:18:19.731Z,10.80
2019-02-21T02:19:23.885Z,10.45
2019-02-21T02:20:27.955Z,10.68
2019-02-21T02:21:32.055Z,10.32
2019-02-21T02:22:36.183Z,11.55
2019-02-21T02:23:40.277Z,10.35
2019-02-21T02:24:44.378Z,10.20
2019-02-21T02:25:48.511Z,10.85
2019-02-21T02:26:52.615Z,11.22
2019-02-21T02:27:56.699Z,10.93
2019-02-21T02:29:00.843Z,10.50
2019-02-21T02:30:05.017Z,10.50
2019-02-21T02:31:21.487Z,10.45
2019-02-21T02:32:14.984Z,9.73
2019-02-21T02:33:19.083Z,10.05
2019-02-21T02:34:23.293Z,10.13
2019-02-21T02:35:27.383Z,9.45
2019-02-21T02:36:31.477Z,10.58
2019-02-21T02:37:35.587Z,10.20
2019-02-21T02:38:40.014Z,10.82
2019-02-21T02:39:44.227Z,10.63
2019-02-21T02:40:48.340Z,10.08
2019-02-21T02:41:52.447Z,10.23
2019-02-21T02:42:56.540Z,9.78
2019-02-21T02:44:00.639Z,9.83
2019-02-21T02:45:05.214Z,9.78
2019-02-21T02:46:09.355Z,9.75
2019-02-21T02:47:13.472Z,9.60
2019-02-21T02:48:17.648Z,10.45
2019-02-21T02:49:21.751Z,10.18
2019-02-21T02:50:25.908Z,9.58
2019-02-21T02:51:30.003Z,9.40
2019-02-21T02:52:34.112Z,9.55
2019-02-21T02:53:38.250Z,9.23
2019-02-21T02:54:42.368Z,9.90
2019-02-21T02:55:46.504Z,9.63
2019-02-21T02:56:50.711Z,8.95
2019-02-21T02:57:54.918Z,9.75
2019-02-21T02:58:59.022Z,9.38
2019-02-21T03:00:03.151Z,9.78
2019-02-21T03:01:07.355Z,9.85
2019-02-21T03:02:11.518Z,9.83
2019-02-21T03:03:15.658Z,9.80
2019-02-21T03:04:19.848Z,9.80
2019-02-21T03:05:24.293Z,9.28
2019-02-21T03:06:28.484Z,9.05
2019-02-21T03:07:32.567Z,9.40
2019-02-21T03:08:36.665Z,9.55
2019-02-21T03:09:40.755Z,9.75
2019-02-21T03:10:44.872Z,9.40
2019-02-21T03:11:51.744Z,10.08
2019-02-21T03:12:54.784Z,9.40
2019-02-21T03:13:58.879Z,9.45
2019-02-21T03:15:03.243Z,9.18
2019-02-21T03:16:07.367Z,9.25
2019-02-21T03:17:11.540Z,10.30
2019-02-21T03:18:15.656Z,10.00
2019-02-21T03:19:19.827Z,9.95
2019-02-21T03:20:23.917Z,9.28
2019-02-21T03:21:28.139Z,10.55
2019-02-21T03:22:32.303Z,9.88
2019-02-21T03:23:36.456Z,9.88
2019-02-21T03:24:40.607Z,10.08
2019-02-21T03:25:44.734Z,9.83
2019-02-21T03:26:48.816Z,10.35
2019-02-21T03:27:52.907Z,9.70
2019-02-21T03:28:57.012Z,9.50
2019-02-21T03:30:01.112Z,9.40
2019-02-21T03:31:05.524Z,10.13
2019-02-21T03:32:09.640Z,9.68
2019-02-21T03:33:13.823Z,10.00
2019-02-21T03:34:18.022Z,9.83
2019-02-21T03:35:22.104Z,9.73
2019-02-21T03:36:26.288Z,9.68
2019-02-21T03:37:30.465Z,10.13
2019-02-21T03:38:35.623Z,11.20
2019-02-21T03:39:39.959Z,10.05
2019-02-21T03:40:44.054Z,9.68
2019-02-21T03:41:48.536Z,9.43
2019-02-21T03:42:52.664Z,10.30
2019-02-21T03:43:56.759Z,9.33
2019-02-21T03:45:00.938Z,10.13
2019-02-21T03:46:05.027Z,9.90
2019-02-21T03:47:09.132Z,10.05
2019-02-21T03:48:13.253Z,10.32
2019-02-21T03:49:17.346Z,9.78
2019-02-21T03:50:21.442Z,9.00
2019-02-21T03:51:25.811Z,10.38
2019-02-21T03:52:30.300Z,9.95
2019-02-21T03:53:34.444Z,9.48
2019-02-21T03:54:38.529Z,10.70
2019-02-21T03:55:42.652Z,9.98
2019-02-21T03:56:46.906Z,9.93
2019-02-21T03:57:51.285Z,9.85
2019-02-21T03:58:55.374Z,10.45
2019-02-21T03:59:59.459Z,9.48
2019-02-21T04:01:03.543Z,10.08
2019-02-21T04:02:07.683Z,9.55
2019-02-21T04:03:12.127Z,9.85
2019-02-21T04:04:16.211Z,9.73
2019-02-21T04:05:20.364Z,9.83
2019-02-21T04:06:24.461Z,10.45
2019-02-21T04:07:28.548Z,10.08
2019-02-21T04:08:32.779Z,9.40
2019-02-21T04:09:36.851Z,9.70
2019-02-21T04:10:41.279Z,9.48
2019-02-21T04:11:45.403Z,10.25
2019-02-21T04:12:49.794Z,10.20
2019-02-21T04:13:53.934Z,9.40
2019-02-21T04:14:58.112Z,9.68
2019-02-21T04:16:02.512Z,10.03
2019-02-21T04:17:06.759Z,10.08
2019-02-21T04:18:10.940Z,10.48
2019-02-21T04:19:15.044Z,9.73
2019-02-21T04:20:19.238Z,10.18
2019-02-21T04:21:23.708Z,10.75
2019-02-21T04:22:27.862Z,10.10
2019-02-21T04:23:32.364Z,9.68
2019-02-21T04:24:36.517Z,10.32
2019-02-21T04:25:40.642Z,10.53
2019-02-21T04:26:44.745Z,10.10
2019-02-21T04:27:48.893Z,10.30
2019-02-21T04:28:53.024Z,10.00
2019-02-21T04:29:57.263Z,9.98
2019-02-21T04:31:01.756Z,9.78
2019-02-21T04:32:16.084Z,10.70
2019-02-21T04:33:11.754Z,10.75
2019-02-21T04:34:15.854Z,10.15
2019-02-21T04:35:20.047Z,10.78
2019-02-21T04:36:24.160Z,10.13
2019-02-21T04:37:28.736Z,9.90
2019-02-21T04:38:32.840Z,11.20
2019-02-21T04:39:36.967Z,10.38
2019-02-21T04:40:41.132Z,11.12
2019-02-21T04:41:45.491Z,10.95
2019-02-21T04:42:49.678Z,10.80
2019-02-21T04:43:53.838Z,11.22
2019-02-21T04:44:57.992Z,10.88
2019-02-21T04:46:02.755Z,11.28
2019-02-21T04:47:06.964Z,10.85
2019-02-21T04:48:11.065Z,11.12
2019-02-21T04:49:15.199Z,11.05
2019-02-21T04:50:19.642Z,10.68
2019-02-21T04:51:23.762Z,11.35
2019-02-21T04:52:27.875Z,11.35
2019-02-21T04:53:32.040Z,10.85
2019-02-21T04:54:36.143Z,11.03
2019-02-21T04:55:40.261Z,10.95
2019-02-21T04:56:44.391Z,11.10
2019-02-21T04:57:48.586Z,10.75
2019-02-21T04:58:52.697Z,11.05
2019-02-21T04:59:56.798Z,11.73
2019-02-21T05:01:00.930Z,11.25
2019-02-21T05:02:05.114Z,11.15
2019-02-21T05:03:09.561Z,11.05
2019-02-21T05:04:14.074Z,11.68
2019-02-21T05:05:18.183Z,11.28
2019-02-21T05:06:22.290Z,11.12
2019-02-21T05:07:26.450Z,11.12
2019-02-21T05:08:30.583Z,11.73
2019-02-21T05:09:34.702Z,10.93
2019-02-21T05:10:38.867Z,11.43
2019-02-21T05:11:42.989Z,10.80
2019-02-21T05:12:47.164Z,12.00
2019-02-21T05:13:51.261Z,11.88
2019-02-21T05:14:55.365Z,11.90
2019-02-21T05:15:59.516Z,11.08
2019-02-21T05:17:03.626Z,11.70
2019-02-21T05:18:07.813Z,11.80
2019-02-21T05:19:12.225Z,11.90
2019-02-21T05:20:16.332Z,12.20
2019-02-21T05:21:20.413Z,11.03
2019-02-21T05:22:24.508Z,12.45
2019-02-21T05:23:28.617Z,12.10
2019-02-21T05:24:32.808Z,11.90
2019-02-21T05:25:36.987Z,12.15
2019-02-21T05:26:44.907Z,12.58
2019-02-21T05:27:56.667Z,11.38
2019-02-21T05:29:01.174Z,11.73
2019-02-21T05:30:06.727Z,11.20
2019-02-21T05:31:29.454Z,11.10
2019-02-21T05:32:55.362Z,10.68
2019-02-21T05:34:07.150Z,10.72
2019-02-21T05:35:19.301Z,10.78
2019-02-21T05:36:54.406Z,10.35
2019-02-21T05:38:18.303Z,10.00
2019-02-21T05:39:56.369Z,10.68
2019-02-21T05:41:28.460Z,10.78
2019-02-21T05:42:53.879Z,11.08
2019-02-21T05:44:07.219Z,10.98
2019-02-21T05:45:26.119Z,11.80
2019-02-21T05:46:41.143Z,12.68
2019-02-21T05:48:04.328Z,12.73
2019-02-21T05:49:15.389Z,12.53
2019-02-21T05:50:41.219Z,11.63
2019-02-21T05:52:13.453Z,12.25
2019-02-21T05:53:41.235Z,11.75
2019-02-21T05:54:54.933Z,11.55
2019-02-21T05:56:16.671Z,10.68
2019-02-21T05:57:45.546Z,11.57
2019-02-21T05:59:11.669Z,12.28
2019-02-21T06:00:37.659Z,12.00
2019-02-21T06:02:03.805Z,11.03
2019-02-21T06:03:27.246Z,11.63
2019-02-21T06:04:56.453Z,11.12
2019-02-21T06:06:17.382Z,10.35
2019-02-21T06:07:29.523Z,11.30
2019-02-21T06:08:48.984Z,10.58
2019-02-21T06:10:21.312Z,11.15
2019-02-21T06:11:35.258Z,10.80
2019-02-21T06:13:04.620Z,11.28
2019-02-21T06:14:23.499Z,11.53
2019-02-21T06:15:42.744Z,12.28
2019-02-21T06:16:57.619Z,13.75
2019-02-21T06:18:21.883Z,12.63
2019-02-21T06:19:45.364Z,12.88
2019-02-21T06:21:26.515Z,11.68
2019-02-21T06:22:39.080Z,11.12
2019-02-21T06:23:51.643Z,11.00
2019-02-21T06:25:29.691Z,10.82
2019-02-21T06:26:40.704Z,10.25
2019-02-21T06:27:58.260Z,10.85
2019-02-21T06:29:11.164Z,10.98
2019-02-21T06:30:22.316Z,11.35
2019-02-21T06:31:26.424Z,11.12
2019-02-21T06:32:30.605Z,11.35
2019-02-21T06:33:34.823Z,11.55
2019-02-21T06:34:38.952Z,11.57
2019-02-21T06:35:43.067Z,11.48
2019-02-21T06:36:47.212Z,11.35
2019-02-21T06:37:52.802Z,10.60
2019-02-21T06:38:56.898Z,12.55
2019-02-21T06:40:01.042Z,11.88
2019-02-21T06:41:05.176Z,11.95
2019-02-21T06:42:09.303Z,12.03
2019-02-21T06:43:13.415Z,11.12
2019-02-21T06:44:17.545Z,11.30
2019-02-21T06:45:21.685Z,12.60
2019-02-21T06:46:25.835Z,11.60
2019-02-21T06:47:30.001Z,12.53
2019-02-21T06:48:34.964Z,12.15
2019-02-21T06:49:39.269Z,11.95
2019-02-21T06:50:43.427Z,11.75
2019-02-21T06:51:47.573Z,11.88
2019-02-21T06:52:51.683Z,11.93
2019-02-21T06:53:55.800Z,11.97
2019-02-21T06:55:02.078Z,12.58
2019-02-21T06:56:06.004Z,13.85
2019-02-21T06:57:10.147Z,17.42
2019-02-21T06:58:14.267Z,18.77
2019-02-21T06:59:18.403Z,18.27
2019-02-21T07:00:22.818Z,16.67
2019-02-21T07:01:29.429Z,16.70
2019-02-21T07:02:32.830Z,15.05
2019-02-21T07:03:36.988Z,15.58
2019-02-21T07:04:41.164Z,15.98
2019-02-21T07:05:45.565Z,15.25
2019-02-21T07:06:49.671Z,16.12
2019-02-21T07:07:53.814Z,17.32
2019-02-21T07:08:59.826Z,16.55
2019-02-21T07:10:03.863Z,16.05
2019-02-21T07:11:08.023Z,15.25
2019-02-21T07:12:12.118Z,14.75
2019-02-21T07:13:26.162Z,15.35
2019-02-21T07:14:22.392Z,14.40
2019-02-21T07:15:26.513Z,14.50
2019-02-21T07:16:30.750Z,13.83
2019-02-21T07:17:35.218Z,13.88
2019-02-21T07:18:40.856Z,14.95
2019-02-21T07:19:45.190Z,14.87
2019-02-21T07:20:49.300Z,13.72
2019-02-21T07:21:53.439Z,14.30
2019-02-21T07:22:57.523Z,15.43
2019-02-21T07:24:01.756Z,14.50
2019-02-21T07:25:23.232Z,14.63
2019-02-21T07:26:27.442Z,13.38
2019-02-21T07:27:31.588Z,14.75
2019-02-21T07:28:35.719Z,13.90
2019-02-21T07:29:42.435Z,15.48
2019-02-21T07:30:46.163Z,15.95
2019-02-21T07:31:50.299Z,15.55
2019-02-21T07:32:54.443Z,14.47
2019-02-21T07:34:01.405Z,13.83
2019-02-21T07:35:04.503Z,14.13
2019-02-21T07:36:11.069Z,13.98
2019-02-21T07:37:18.541Z,13.90
2019-02-21T07:38:20.331Z,13.70
2019-02-21T07:39:35.237Z,14.45
2019-02-21T07:40:30.340Z,14.40
2019-02-21T07:41:34.459Z,15.00
2019-02-21T07:42:38.625Z,13.85
2019-02-21T07:43:42.755Z,14.20
2019-02-21T07:44:47.227Z,14.45
2019-02-21T07:45:51.439Z,13.85
2019-02-21T07:46:55.643Z,14.93
2019-02-21T07:47:59.782Z,14.65
2019-02-21T07:49:04.159Z,13.00
2019-02-21T07:50:08.395Z,13.35
2019-02-21T07:51:13.514Z,14.95
2019-02-21T07:52:17.843Z,14.25
2019-02-21T07:53:21.953Z,13.98
2019-02-21T07:54:26.992Z,14.38
2019-02-21T07:55:31.129Z,13.85
2019-02-21T07:56:41.985Z,13.80
2019-02-21T07:57:41.067Z,14.25
2019-02-21T07:58:45.210Z,14.43
2019-02-21T07:59:49.412Z,15.08
2019-02-21T08:00:54.185Z,15.23
2019-02-21T08:01:58.659Z,13.80
2019-02-21T08:03:02.785Z,13.95
2019-02-21T08:04:06.963Z,13.40
2019-02-21T08:05:11.093Z,14.55
2019-02-21T08:06:15.299Z,14.98
2019-02-21T08:07:19.384Z,13.43
2019-02-21T08:08:23.486Z,14.30
2019-02-21T08:09:28.053Z,15.40
2019-02-21T08:10:33.811Z,16.55
2019-02-21T08:11:38.256Z,15.93
2019-02-21T08:12:42.348Z,15.00
2019-02-21T08:13:46.442Z,14.98
2019-02-21T08:14:50.575Z,14.47
2019-02-21T08:15:54.686Z,16.85
2019-02-21T08:16:58.837Z,15.55
2019-02-21T08:18:02.960Z,15.70
2019-02-21T08:19:07.072Z,16.85
2019-02-21T08:20:11.622Z,16.20
2019-02-21T08:21:15.777Z,16.20
2019-02-21T08:22:19.945Z,15.78
2019-02-21T08:23:24.118Z,15.60
2019-02-21T08:24:28.212Z,16.32
2019-02-21T08:25:32.350Z,16.30
2019-02-21T08:26:36.480Z,18.12
2019-02-21T08:27:42.454Z,16.20
2019-02-21T08:28:46.382Z,16.42
2019-02-21T08:29:50.504Z,16.52
2019-02-21T08:30:54.646Z,17.40
2019-02-21T08:31:58.823Z,16.70
2019-02-21T08:33:22.026Z,16.52
2019-02-21T08:34:33.530Z,16.75
2019-02-21T08:35:37.735Z,16.97
2019-02-21T08:36:41.963Z,18.75
2019-02-21T08:37:46.052Z,16.93
2019-02-21T08:38:50.158Z,16.17
2019-02-21T08:39:54.298Z,15.88
2019-02-21T08:40:59.117Z,15.28
2019-02-21T08:42:03.296Z,15.25
2019-02-21T08:43:07.407Z,15.50
2019-02-21T08:44:11.540Z,15.48
2019-02-21T08:45:17.758Z,16.70
2019-02-21T08:46:21.535Z,15.70
2019-02-21T08:47:25.633Z,15.13
2019-02-21T08:48:29.735Z,16.55
2019-02-21T08:49:33.857Z,17.00
2019-02-21T08:50:38.031Z,15.80
2019-02-21T08:51:42.135Z,17.17
2019-02-21T08:52:46.256Z,16.35
2019-02-21T08:53:50.439Z,16.90
2019-02-21T08:55:00.200Z,17.98
2019-02-21T08:56:00.403Z,18.02
2019-02-21T08:57:04.851Z,15.45
2019-02-21T08:58:09.072Z,15.32
2019-02-21T08:59:13.163Z,14.47
2019-02-21T09:00:17.281Z,15.43
2019-02-21T09:01:21.376Z,15.78
2019-02-21T09:02:25.517Z,14.55
2019-02-21T09:03:29.643Z,15.80
2019-02-21T09:04:33.736Z,15.38
2019-02-21T09:05:37.875Z,14.58
2019-02-21T09:06:41.967Z,15.70
2019-02-21T09:07:46.518Z,16.23
2019-02-21T09:08:50.796Z,16.32
2019-02-21T09:09:54.960Z,15.58
2019-02-21T09:10:59.051Z,15.65
2019-02-21T09:12:05.522Z,17.15
2019-02-21T09:13:09.142Z,17.20
2019-02-21T09:14:13.264Z,16.35
2019-02-21T09:15:17.403Z,16.80
2019-02-21T09:16:21.523Z,15.68
2019-02-21T09:17:25.607Z,17.80
2019-02-21T09:18:29.756Z,15.28
2019-02-21T09:19:33.853Z,15.88
2019-02-21T09:20:38.060Z,16.95
2019-02-21T09:21:42.155Z,15.32
2019-02-21T09:22:46.293Z,14.55
2019-02-21T09:23:50.475Z,15.88
2019-02-21T09:24:54.584Z,16.02
2019-02-21T09:25:58.705Z,15.35
2019-02-21T09:27:02.841Z,16.00
2019-02-21T09:28:06.983Z,15.65
2019-02-21T09:29:11.115Z,16.93
2019-02-21T09:30:18.672Z,16.30
2019-02-21T09:31:22.839Z,15.85
2019-02-21T09:32:26.937Z,15.80
2019-02-21T09:33:31.022Z,16.60
2019-02-21T09:34:35.142Z,15.70
2019-02-21T09:35:39.414Z,15.25
2019-02-21T09:36:43.515Z,17.02
2019-02-21T09:37:47.626Z,15.70
2019-02-21T09:38:51.756Z,15.83
2019-02-21T09:39:55.899Z,16.15
2019-02-21T09:40:59.993Z,17.37
2019-02-21T09:42:04.345Z,16.10
2019-02-21T09:43:08.465Z,16.02
2019-02-21T09:44:12.650Z,15.23
2019-02-21T09:45:17.419Z,16.37
2019-02-21T09:46:21.540Z,16.87
2019-02-21T09:47:25.688Z,17.35
2019-02-21T09:48:29.794Z,17.12
2019-02-21T09:49:33.932Z,17.30
2019-02-21T09:50:38.067Z,18.15
2019-02-21T09:51:42.204Z,16.82
2019-02-21T09:52:46.311Z,17.25
2019-02-21T09:53:50.411Z,16.73
2019-02-21T09:54:54.524Z,16.60
2019-02-21T09:55:58.614Z,17.57
2019-02-21T09:57:12.946Z,17.32
2019-02-21T09:58:08.615Z,17.23
2019-02-21T09:59:12.838Z,17.70
2019-02-21T10:00:18.577Z,16.52
2019-02-21T10:01:22.719Z,17.60
2019-02-21T10:02:26.821Z,16.97
2019-02-21T10:03:30.922Z,16.80
2019-02-21T10:04:35.020Z,17.27
2019-02-21T10:05:39.184Z,16.57
2019-02-21T10:06:43.282Z,17.55
2019-02-21T10:07:47.372Z,16.48
2019-02-21T10:08:51.740Z,17.73
2019-02-21T10:09:56.062Z,18.12
2019-02-21T10:11:00.931Z,16.70
2019-02-21T10:12:05.193Z,17.27
2019-02-21T10:13:09.311Z,16.87
2019-02-21T10:14:13.464Z,18.05
2019-02-21T10:15:17.667Z,17.23
2019-02-21T10:16:21.963Z,17.73
2019-02-21T10:17:26.120Z,18.40
2019-02-21T10:18:30.254Z,16.77
2019-02-21T10:19:35.684Z,18.45
2019-02-21T10:20:40.072Z,17.02
2019-02-21T10:21:44.324Z,18.95
2019-02-21T10:22:48.466Z,18.48
2019-02-21T10:23:52.599Z,18.32
2019-02-21T10:24:57.178Z,17.23
2019-02-21T10:26:01.451Z,18.55
2019-02-21T10:27:05.578Z,20.77
2019-02-21T10:28:09.668Z,20.40
2019-02-21T10:29:13.789Z,20.97
2019-02-21T10:30:19.393Z,19.25
2019-02-21T10:31:23.489Z,18.65
2019-02-21T10:32:27.610Z,20.35
2019-02-21T10:33:31.700Z,23.73
2019-02-21T10:34:42.783Z,22.62
2019-02-21T10:35:41.650Z,21.10
2019-02-21T10:36:45.744Z,17.15
2019-02-21T10:37:49.871Z,17.77
2019-02-21T10:38:53.971Z,17.55
2019-02-21T10:39:58.078Z,17.75
2019-02-21T10:41:02.199Z,18.12
2019-02-21T10:42:06.318Z,18.73
2019-02-21T10:43:10.493Z,18.30
2019-02-21T10:44:14.707Z,18.05
2019-02-21T10:45:18.990Z,18.40
2019-02-21T10:46:23.090Z,17.40
2019-02-21T10:47:27.404Z,17.32
2019-02-21T10:48:31.492Z,18.55
2019-02-21T10:49:35.609Z,18.50
2019-02-21T10:50:39.787Z,17.77
2019-02-21T10:51:43.946Z,18.37
2019-02-21T10:52:48.089Z,19.80
2019-02-21T10:53:52.237Z,17.45
2019-02-21T10:54:56.429Z,18.55
2019-02-21T10:56:00.573Z,19.73
2019-02-21T10:57:04.730Z,20.88
2019-02-21T10:58:08.847Z,18.50
2019-02-21T10:59:12.947Z,17.80
2019-02-21T11:00:22.243Z,18.05
2019-02-21T11:01:26.621Z,18.98
2019-02-21T11:02:30.738Z,18.32
2019-02-21T11:03:34.851Z,18.55
2019-02-21T11:04:41.997Z,17.75
2019-02-21T11:05:44.897Z,18.50
2019-02-21T11:06:49.042Z,18.00
2019-02-21T11:07:53.171Z,18.73
2019-02-21T11:08:57.323Z,18.17
2019-02-21T11:10:02.671Z,17.75
2019-02-21T11:11:06.961Z,17.52
2019-02-21T11:12:11.268Z,18.77
2019-02-21T11:13:16.390Z,18.23
2019-02-21T11:14:20.675Z,18.17
2019-02-21T11:15:25.241Z,18.45
2019-02-21T11:16:29.636Z,18.45
2019-02-21T11:17:34.411Z,17.27
2019-02-21T11:18:38.760Z,18.70
2019-02-21T11:19:43.136Z,19.42
2019-02-21T11:20:47.279Z,18.45
2019-02-21T11:21:51.446Z,18.70
2019-02-21T11:22:55.714Z,19.30
2019-02-21T11:23:59.820Z,19.00
2019-02-21T11:25:03.918Z,19.90
2019-02-21T11:26:08.042Z,25.25
2019-02-21T11:27:12.153Z,18.98
2019-02-21T11:28:16.267Z,19.65
2019-02-21T11:29:20.354Z,17.25
2019-02-21T11:30:24.517Z,18.10
2019-02-21T11:31:28.798Z,18.40
2019-02-21T11:32:32.967Z,18.48
2019-02-21T11:33:37.071Z,18.52
2019-02-21T11:34:41.180Z,17.65
2019-02-21T11:35:45.300Z,18.62
2019-02-21T11:36:49.758Z,17.90
2019-02-21T11:37:53.973Z,17.50
2019-02-21T11:38:58.076Z,17.55
2019-02-21T11:40:02.201Z,18.17
2019-02-21T11:41:06.378Z,17.42
2019-02-21T11:42:10.483Z,17.98
2019-02-21T11:43:14.592Z,17.07
2019-02-21T11:44:18.692Z,17.82
2019-02-21T11:45:22.814Z,17.95
2019-02-21T11:46:27.015Z,17.50
2019-02-21T11:47:31.110Z,17.05
2019-02-21T11:48:35.344Z,18.42
2019-02-21T11:49:39.449Z,18.77
2019-02-21T11:50:43.615Z,18.60
2019-02-21T11:51:47.707Z,16.85
2019-02-21T11:52:51.798Z,17.45
2019-02-21T11:53:55.976Z,18.30
2019-02-21T11:55:00.102Z,18.02
2019-02-21T11:56:04.287Z,16.35
2019-02-21T11:57:08.386Z,16.73
2019-02-21T11:58:12.498Z,17.37
2019-02-21T11:59:16.599Z,16.80
2019-02-21T12:00:24.985Z,18.15
2019-02-21T12:01:29.085Z,19.20
2019-02-21T12:02:38.882Z,18.65
2019-02-21T12:03:39.238Z,16.97
2019-02-21T12:04:43.436Z,18.32
2019-02-21T12:05:47.532Z,18.15
2019-02-21T12:06:51.623Z,17.37
2019-02-21T12:07:55.728Z,17.60
2019-02-21T12:08:59.879Z,17.73
2019-02-21T12:10:04.048Z,17.77
2019-02-21T12:11:08.180Z,17.87
2019-02-21T12:12:12.303Z,18.27
2019-02-21T12:13:16.392Z,18.40
2019-02-21T12:14:20.484Z,18.30
2019-02-21T12:15:24.599Z,21.52
2019-02-21T12:16:28.700Z,20.80
2019-02-21T12:17:32.813Z,18.25
2019-02-21T12:18:37.008Z,17.02
2019-02-21T12:19:41.159Z,18.35
2019-02-21T12:20:45.288Z,19.32
2019-02-21T12:21:58.677Z,18.80
2019-02-21T12:22:55.207Z,19.10
2019-02-21T12:23:59.301Z,18.45
2019-02-21T12:25:03.447Z,17.82
2019-02-21T12:26:07.581Z,18.10
2019-02-21T12:27:11.728Z,16.75
2019-02-21T12:28:15.945Z,17.32
2019-02-21T12:29:20.059Z,17.65
2019-02-21T12:30:24.174Z,17.27
2019-02-21T12:31:28.306Z,17.67
2019-02-21T12:32:32.450Z,17.20
2019-02-21T12:33:36.617Z,17.80
2019-02-21T12:34:40.807Z,17.17
2019-02-21T12:35:44.966Z,17.80
2019-02-21T12:36:49.079Z,17.95
2019-02-21T12:37:53.302Z,19.17
2019-02-21T12:38:57.457Z,18.57
2019-02-21T12:40:01.580Z,16.82
2019-02-21T12:41:05.726Z,18.00
2019-02-21T12:42:09.899Z,19.10
2019-02-21T12:43:14.070Z,19.95
2019-02-21T12:44:18.259Z,18.77
2019-02-21T12:45:22.739Z,24.90
2019-02-21T12:46:26.860Z,18.20
2019-02-21T12:47:31.019Z,17.42
2019-02-21T12:48:35.151Z,16.57
2019-02-21T12:49:39.377Z,19.42
2019-02-21T12:50:44.530Z,19.10
2019-02-21T12:51:48.773Z,18.80
2019-02-21T12:52:52.905Z,18.55
2019-02-21T12:53:57.003Z,18.57
2019-02-21T12:55:01.128Z,17.27
2019-02-21T12:56:05.306Z,18.07
2019-02-21T12:57:09.425Z,17.30
2019-02-21T12:58:13.538Z,18.37
2019-02-21T12:59:17.635Z,19.27
2019-02-21T13:00:21.734Z,17.87
2019-02-21T13:01:26.109Z,17.12
2019-02-21T13:02:30.227Z,19.50
2019-02-21T13:03:34.332Z,17.87
2019-02-21T13:04:38.451Z,20.00
2019-02-21T13:05:44.514Z,19.40
2019-02-21T13:06:48.395Z,16.97
2019-02-21T13:07:52.611Z,19.23
2019-02-21T13:08:57.646Z,19.05
2019-02-21T13:10:01.955Z,18.67
2019-02-21T13:11:06.044Z,17.40
2019-02-21T13:12:10.436Z,18.17
2019-02-21T13:13:14.587Z,17.37
2019-02-21T13:14:18.686Z,19.37
2019-02-21T13:15:23.140Z,19.73
2019-02-21T13:16:27.239Z,18.10
2019-02-21T13:17:31.366Z,18.95
2019-02-21T13:18:35.592Z,19.45
2019-02-21T13:19:39.781Z,19.85
2019-02-21T13:20:43.920Z,19.80
2019-02-21T13:21:48.095Z,19.05
2019-02-21T13:22:52.342Z,18.92
2019-02-21T13:23:56.768Z,17.20
2019-02-21T13:25:00.943Z,18.77
2019-02-21T13:26:05.059Z,16.73
2019-02-21T13:27:09.227Z,18.23
2019-02-21T13:28:13.330Z,17.40
2019-02-21T13:29:17.435Z,17.80
2019-02-21T13:30:21.538Z,18.10
2019-02-21T13:31:25.657Z,17.00
2019-02-21T13:32:29.771Z,17.65
2019-02-21T13:33:33.951Z,17.65
2019-02-21T13:34:38.067Z,16.80
2019-02-21T13:35:52.215Z,16.77
2019-02-21T13:36:48.055Z,16.93
2019-02-21T13:37:52.211Z,17.27
2019-02-21T13:38:56.363Z,16.73
2019-02-21T13:40:00.807Z,16.73
2019-02-21T13:41:05.197Z,17.20
2019-02-21T13:42:09.299Z,16.95
2019-02-21T13:43:13.510Z,16.45
2019-02-21T13:44:17.758Z,17.10
2019-02-21T13:45:22.042Z,16.97
2019-02-21T13:46:36.789Z,16.97
2019-02-21T13:47:32.319Z,15.58
2019-02-21T13:48:36.499Z,16.20
2019-02-21T13:49:40.623Z,15.98
2019-02-21T13:50:45.055Z,15.65
2019-02-21T13:51:49.196Z,17.37
2019-02-21T13:52:53.304Z,15.93
2019-02-21T13:53:57.456Z,15.53
2019-02-21T13:55:01.579Z,15.13
2019-02-21T13:56:05.694Z,16.90
2019-02-21T13:57:09.805Z,17.12
2019-02-21T13:58:13.939Z,17.95
2019-02-21T13:59:18.047Z,16.85
2019-02-21T14:00:22.284Z,15.68
2019-02-21T14:01:26.485Z,15.50
2019-02-21T14:02:30.624Z,18.02
2019-02-21T14:03:35.169Z,18.07
2019-02-21T14:04:39.309Z,16.65
2019-02-21T14:05:43.512Z,17.98
2019-02-21T14:06:47.675Z,15.68
2019-02-21T14:07:51.802Z,13.45